Time;durP1;ratioP1;P1;durP2;ratioP2;P2;SDS_P1;SDS_P2;PMS_P1;PMS_P2;Temp;Humidity;BMP_temperature;BMP_pressure;BME280_temperature;BME280_humidity;BME280_pressure;Samples;Min_cycle;Max_cycle;Signal;HPM_P1;HPM_P2
2022/10/29 00:00:10;;;;;;;10.07;5.73;;;23.80;93.40;;;;;;5101018;28;20452;-80
2022/10/29 00:02:38;;;;;;;11.30;6.13;;;23.70;93.40;;;;;;5100530;28;20960;-80
2022/10/29 00:05:07;;;;;;;8.53;5.83;;;23.80;93.40;;;;;;5101480;28;20419;-80
2022/10/29 00:07:35;;;;;;;17.63;6.37;;;23.70;93.40;;;;;;5107431;28;20407;-81
2022/10/29 00:10:05;;;;;;;11.07;5.90;;;23.80;93.40;;;;;;5103221;28;20415;-80
2022/10/29 00:12:33;;;;;;;9.33;5.53;;;23.80;93.40;;;;;;5101360;28;20436;-80
2022/10/29 00:15:01;;;;;;;11.17;5.67;;;23.70;93.30;;;;;;5100491;28;20448;-79
2022/10/29 00:17:29;;;;;;;10.63;5.13;;;23.80;93.40;;;;;;5100408;28;20412;-79
2022/10/29 00:19:57;;;;;;;10.13;6.17;;;23.70;93.30;;;;;;5100668;28;20937;-80
2022/10/29 00:22:25;;;;;;;8.13;5.83;;;23.70;93.50;;;;;;5096842;28;20439;-78
2022/10/29 00:24:53;;;;;;;7.07;5.73;;;23.70;93.40;;;;;;5095217;28;20451;-80
2022/10/29 00:27:22;;;;;;;9.80;5.80;;;23.70;93.50;;;;;;5100478;28;20410;-79
2022/10/29 00:29:51;;;;;;;12.57;6.23;;;23.70;93.50;;;;;;5100279;28;20410;-79
2022/10/29 00:32:19;;;;;;;9.10;5.90;;;23.70;93.50;;;;;;5097225;28;20420;-80
2022/10/29 00:34:49;;;;;;;6.30;5.37;;;23.70;93.50;;;;;;5102609;28;20472;-80
2022/10/29 00:37:17;;;;;;;10.30;5.70;;;23.70;93.50;;;;;;5099261;28;20461;-80
2022/10/29 00:39:45;;;;;;;10.67;5.53;;;23.70;93.40;;;;;;5102275;28;20441;-80
2022/10/29 00:42:14;;;;;;;8.30;5.93;;;23.70;93.50;;;;;;5098991;28;20415;-81
2022/10/29 00:44:43;;;;;;;6.40;5.43;;;23.70;93.40;;;;;;5109330;28;20440;-81
2022/10/29 00:47:17;;;;;;;8.93;5.80;;;23.70;93.40;;;;;;5107675;28;20400;-81
2022/10/29 00:49:45;;;;;;;11.23;6.50;;;23.70;93.50;;;;;;5108871;28;20440;-80
2022/10/29 00:52:13;;;;;;;13.57;6.57;;;23.70;93.50;;;;;;5109344;28;20436;-81
2022/10/29 00:54:42;;;;;;;10.70;5.53;;;23.70;93.40;;;;;;5104497;28;20458;-78
2022/10/29 00:57:12;;;;;;;9.40;5.83;;;23.60;93.40;;;;;;5100415;28;20494;-79
2022/10/29 00:59:39;;;;;;;8.93;6.07;;;23.60;93.50;;;;;;5101728;28;20459;-79
2022/10/29 01:02:09;;;;;;;9.30;6.30;;;23.70;93.50;;;;;;5100069;28;20453;-80
2022/10/29 01:04:37;;;;;;;10.70;6.43;;;23.60;93.40;;;;;;5106859;28;20431;-79
2022/10/29 01:07:06;;;;;;;7.50;5.70;;;23.70;93.50;;;;;;5099972;28;20420;-79
2022/10/29 01:09:34;;;;;;;7.33;6.00;;;23.60;93.40;;;;;;5098700;28;20456;-81
2022/10/29 01:12:10;;;;;;;10.67;6.47;;;23.60;93.50;;;;;;5105618;28;20430;-80
2022/10/29 01:14:43;;;;;;;11.97;5.80;;;23.60;93.60;;;;;;5103388;28;20469;-79
2022/10/29 01:17:15;;;;;;;9.53;6.83;;;23.60;93.60;;;;;;5100476;28;20426;-80
2022/10/29 01:19:55;;;;;;;8.70;5.70;;;23.60;93.60;;;;;;5100964;28;20434;-80
2022/10/29 01:22:25;;;;;;;6.57;5.97;;;23.60;93.70;;;;;;5102064;28;20435;-79
2022/10/29 01:25:01;;;;;;;8.43;5.87;;;23.50;93.70;;;;;;5098213;28;20539;-79
2022/10/29 01:27:55;;;;;;;9.63;6.23;;;23.60;93.80;;;;;;5099935;28;20415;-79
2022/10/29 01:30:42;;;;;;;8.47;6.53;;;23.50;93.70;;;;;;5099517;28;20448;-79
2022/10/29 01:33:14;;;;;;;8.90;6.33;;;23.50;93.70;;;;;;5097709;28;20447;-79
2022/10/29 01:35:47;;;;;;;10.30;6.77;;;23.50;93.70;;;;;;5091603;28;20452;-79
2022/10/29 01:38:22;;;;;;;8.70;6.57;;;23.50;93.70;;;;;;5098842;28;20452;-80
2022/10/29 01:40:54;;;;;;;9.30;6.57;;;23.50;93.80;;;;;;5099620;28;20431;-79
2022/10/29 01:43:24;;;;;;;7.57;6.60;;;23.50;93.70;;;;;;5099058;28;20446;-79
2022/10/29 01:45:55;;;;;;;12.00;7.50;;;23.50;93.70;;;;;;5101219;28;20416;-79
2022/10/29 01:48:28;;;;;;;8.23;6.00;;;23.50;93.80;;;;;;5099347;28;20434;-80
2022/10/29 01:51:08;;;;;;;12.70;7.10;;;23.50;93.80;;;;;;5100156;28;20489;-79
2022/10/29 01:53:36;;;;;;;9.33;7.17;;;23.50;93.80;;;;;;5098923;28;20443;-79
2022/10/29 01:56:05;;;;;;;7.83;6.37;;;23.50;93.80;;;;;;5099381;28;20438;-79
2022/10/29 01:58:33;;;;;;;8.57;7.00;;;23.50;93.80;;;;;;5094597;28;20453;-80
2022/10/29 02:01:06;;;;;;;9.30;6.80;;;23.40;93.80;;;;;;5100395;28;20444;-79
2022/10/29 02:03:37;;;;;;;14.50;7.37;;;23.40;93.90;;;;;;5096811;28;20471;-79
2022/10/29 02:06:09;;;;;;;8.37;6.80;;;23.40;93.90;;;;;;5100141;28;20452;-79
2022/10/29 02:08:41;;;;;;;9.43;7.20;;;23.40;94.00;;;;;;5098384;28;20426;-79
2022/10/29 02:11:11;;;;;;;8.43;6.60;;;23.40;94.00;;;;;;5101095;28;20421;-79
2022/10/29 02:13:41;;;;;;;10.17;6.80;;;23.40;93.90;;;;;;5100724;28;20447;-79
2022/10/29 02:16:10;;;;;;;8.23;6.10;;;23.40;93.90;;;;;;5098681;28;20471;-80
2022/10/29 02:18:42;;;;;;;9.10;7.07;;;23.40;94.00;;;;;;5096347;28;20906;-79
2022/10/29 02:21:10;;;;;;;7.90;6.73;;;23.40;94.00;;;;;;5099489;28;20450;-79
2022/10/29 02:23:38;;;;;;;9.40;6.97;;;23.40;94.00;;;;;;5097080;28;20487;-80
2022/10/29 02:26:07;;;;;;;8.77;6.90;;;23.40;94.00;;;;;;5093677;28;20444;-80
2022/10/29 02:28:35;;;;;;;9.60;7.47;;;23.30;93.90;;;;;;5098699;28;20427;-79
2022/10/29 02:31:03;;;;;;;13.10;6.83;;;23.30;93.90;;;;;;5101052;28;20436;-79
2022/10/29 02:33:31;;;;;;;9.30;6.73;;;23.30;93.90;;;;;;5096540;28;20479;-81
2022/10/29 02:36:01;;;;;;;8.23;6.63;;;23.30;94.00;;;;;;5096922;28;20471;-79
2022/10/29 02:38:29;;;;;;;9.47;7.20;;;23.30;94.00;;;;;;5091472;28;20428;-78
2022/10/29 02:40:56;;;;;;;10.13;7.30;;;23.30;94.00;;;;;;5093170;28;20985;-78
2022/10/29 02:43:25;;;;;;;10.07;7.30;;;23.30;94.10;;;;;;5092369;28;20479;-79
2022/10/29 02:46:11;;;;;;;8.53;7.00;;;23.30;94.00;;;;;;5092637;28;20416;-79
2022/10/29 02:48:39;;;;;;;13.63;6.83;;;23.30;94.10;;;;;;5094507;28;20457;-79
2022/10/29 02:51:08;;;;;;;10.30;6.83;;;23.30;94.00;;;;;;5095523;28;20449;-79
2022/10/29 02:53:37;;;;;;;7.53;6.40;;;23.20;94.00;;;;;;5103292;28;20445;-80
2022/10/29 02:56:05;;;;;;;7.17;6.47;;;23.20;94.10;;;;;;5099235;28;20454;-79
2022/10/29 02:58:33;;;;;;;7.37;6.33;;;23.20;94.20;;;;;;5094475;28;20445;-79
2022/10/29 03:01:01;;;;;;;7.90;6.27;;;23.20;94.20;;;;;;5103677;28;20430;-80
2022/10/29 03:03:29;;;;;;;8.77;6.90;;;23.20;94.10;;;;;;5098265;28;20469;-80
2022/10/29 03:05:57;;;;;;;8.03;6.40;;;23.20;94.10;;;;;;5102917;28;20512;-79
2022/10/29 03:08:27;;;;;;;9.23;6.53;;;23.20;94.20;;;;;;5100898;28;20809;-80
2022/10/29 03:10:55;;;;;;;9.83;6.90;;;23.20;94.20;;;;;;5096356;28;20489;-79
2022/10/29 03:13:23;;;;;;;7.73;6.20;;;23.20;94.10;;;;;;5095307;28;20478;-79
2022/10/29 03:15:51;;;;;;;8.43;6.70;;;23.10;94.10;;;;;;5098140;28;20446;-79
2022/10/29 03:18:19;;;;;;;11.63;7.00;;;23.10;94.10;;;;;;5095929;28;20814;-80
2022/10/29 03:20:47;;;;;;;8.40;6.80;;;23.10;94.20;;;;;;5098377;28;20452;-79
2022/10/29 03:23:15;;;;;;;6.57;5.80;;;23.10;94.20;;;;;;5099539;28;20482;-80
2022/10/29 03:25:44;;;;;;;8.70;6.40;;;23.10;94.10;;;;;;5104282;28;20433;-80
2022/10/29 03:28:18;;;;;;;7.80;5.93;;;23.10;94.20;;;;;;5103404;28;20478;-79
2022/10/29 03:30:46;;;;;;;7.30;6.30;;;23.10;94.20;;;;;;5103568;28;20448;-80
2022/10/29 03:33:14;;;;;;;7.20;6.13;;;23.10;94.20;;;;;;5100063;28;20476;-79
2022/10/29 03:35:42;;;;;;;7.87;6.30;;;23.10;94.20;;;;;;5102460;28;20447;-79
2022/10/29 03:38:11;;;;;;;9.80;6.00;;;23.10;94.30;;;;;;5100015;28;20456;-80
2022/10/29 03:40:39;;;;;;;9.10;6.20;;;23.10;94.20;;;;;;5098736;28;20420;-80
2022/10/29 03:43:08;;;;;;;7.07;6.40;;;23.10;94.10;;;;;;5101505;28;20447;-79
2022/10/29 03:45:36;;;;;;;7.30;6.10;;;23.00;94.10;;;;;;5101498;28;20411;-79
2022/10/29 03:48:04;;;;;;;6.93;5.80;;;23.00;94.10;;;;;;5100886;28;20429;-81
2022/10/29 03:50:32;;;;;;;7.10;6.03;;;23.00;94.20;;;;;;5099854;28;20459;-79
2022/10/29 03:53:01;;;;;;;7.33;5.80;;;23.00;94.20;;;;;;5097175;28;20529;-80
2022/10/29 03:55:28;;;;;;;9.27;5.70;;;23.00;94.20;;;;;;5101930;28;20450;-80
2022/10/29 03:57:57;;;;;;;8.90;6.43;;;23.00;94.30;;;;;;5100464;28;20434;-80
2022/10/29 04:00:27;;;;;;;7.40;5.80;;;23.00;94.30;;;;;;5101907;28;20471;-82
2022/10/29 04:02:55;;;;;;;6.60;5.50;;;23.00;94.20;;;;;;5107759;28;20774;-81
2022/10/29 04:05:24;;;;;;;8.27;5.97;;;23.00;94.20;;;;;;5097532;28;20948;-79
2022/10/29 04:07:52;;;;;;;7.53;5.60;;;23.00;94.20;;;;;;5095768;28;20532;-79
2022/10/29 04:10:20;;;;;;;6.90;6.00;;;23.00;94.30;;;;;;5099755;28;20427;-79
2022/10/29 04:12:48;;;;;;;5.50;5.10;;;23.00;94.20;;;;;;5095893;28;20447;-79
2022/10/29 04:15:16;;;;;;;6.10;5.50;;;23.00;94.30;;;;;;5099021;28;20464;-80
2022/10/29 04:17:45;;;;;;;7.93;6.27;;;22.90;94.20;;;;;;5098636;28;20451;-79
2022/10/29 04:20:13;;;;;;;7.00;5.40;;;22.90;94.30;;;;;;5097956;28;20452;-79
2022/10/29 04:23:00;;;;;;;7.03;5.67;;;22.90;94.30;;;;;;5097983;28;20431;-80
2022/10/29 04:25:56;;;;;;;6.73;5.93;;;22.90;94.20;;;;;;5099488;28;20419;-79
2022/10/29 04:28:45;;;;;;;6.83;5.40;;;22.90;94.30;;;;;;5099089;28;20419;-79
2022/10/29 04:31:13;;;;;;;8.13;6.17;;;22.90;94.30;;;;;;5101465;28;20408;-79
2022/10/29 04:33:42;;;;;;;5.67;5.10;;;22.90;94.30;;;;;;5098967;28;20465;-79
2022/10/29 04:36:10;;;;;;;6.10;5.50;;;22.90;94.30;;;;;;5101517;28;20460;-79
2022/10/29 04:38:38;;;;;;;7.80;5.90;;;22.80;94.30;;;;;;5100015;28;20459;-80
2022/10/29 04:41:06;;;;;;;8.13;5.13;;;22.80;94.30;;;;;;5100873;28;20785;-79
2022/10/29 04:43:34;;;;;;;6.07;5.50;;;22.90;94.40;;;;;;5098097;28;20468;-79
2022/10/29 04:46:02;;;;;;;5.60;4.80;;;22.80;94.30;;;;;;5098779;28;20450;-79
2022/10/29 04:48:30;;;;;;;5.30;4.80;;;22.80;94.30;;;;;;5098897;28;20453;-80
2022/10/29 04:51:00;;;;;;;8.67;5.40;;;22.80;94.30;;;;;;5083877;28;20449;-80
2022/10/29 04:53:28;;;;;;;6.80;5.57;;;22.80;94.40;;;;;;5096684;28;20468;-79
2022/10/29 04:55:59;;;;;;;6.37;5.43;;;22.70;94.30;;;;;;5099368;28;20448;-80
2022/10/29 04:58:27;;;;;;;5.60;4.90;;;22.80;94.40;;;;;;5104448;28;20457;-79
2022/10/29 05:01:01;;;;;;;11.47;5.83;;;22.80;94.50;;;;;;5103807;28;20457;-80
2022/10/29 05:03:29;;;;;;;6.40;5.30;;;22.70;94.50;;;;;;5101971;28;20455;-80
2022/10/29 05:05:57;;;;;;;7.20;5.17;;;22.70;94.50;;;;;;5108164;28;20499;-81
2022/10/29 05:08:27;;;;;;;5.90;5.03;;;22.70;94.50;;;;;;5105264;28;20449;-80
2022/10/29 05:10:55;;;;;;;7.43;4.77;;;22.70;94.50;;;;;;5101233;28;20441;-81
2022/10/29 05:13:23;;;;;;;5.80;5.13;;;22.70;94.50;;;;;;5108019;28;20476;-80
2022/10/29 05:15:51;;;;;;;5.17;4.77;;;22.70;94.40;;;;;;5102638;28;20472;-80
2022/10/29 05:18:20;;;;;;;5.07;4.57;;;22.70;94.50;;;;;;5107896;28;20448;-80
2022/10/29 05:20:48;;;;;;;5.07;4.57;;;22.70;94.50;;;;;;5109249;28;20445;-81
2022/10/29 05:23:16;;;;;;;6.53;4.53;;;22.70;94.50;;;;;;5106803;28;20481;-80
2022/10/29 05:25:47;;;;;;;6.53;4.97;;;22.70;94.50;;;;;;5108598;28;20461;-80
2022/10/29 05:28:17;;;;;;;5.63;4.87;;;22.70;94.40;;;;;;5108695;28;20444;-80
2022/10/29 05:30:46;;;;;;;7.60;5.10;;;22.70;94.50;;;;;;5105477;28;20518;-80
2022/10/29 05:33:15;;;;;;;6.17;4.57;;;22.60;94.40;;;;;;5108217;28;20468;-81
2022/10/29 05:35:43;;;;;;;5.77;4.63;;;22.70;94.40;;;;;;5105314;28;20427;-80
2022/10/29 05:38:11;;;;;;;5.93;4.60;;;22.70;94.40;;;;;;5103443;28;20453;-80
2022/10/29 05:40:41;;;;;;;4.63;4.30;;;22.60;94.30;;;;;;5093593;28;20453;-79
2022/10/29 05:43:10;;;;;;;5.27;4.60;;;22.70;94.40;;;;;;5092519;28;20472;-78
2022/10/29 05:45:39;;;;;;;5.53;4.70;;;22.60;94.40;;;;;;5092232;28;20463;-79
2022/10/29 05:48:06;;;;;;;4.70;4.30;;;22.60;94.40;;;;;;5094841;28;20443;-80
2022/10/29 05:50:35;;;;;;;5.20;4.20;;;22.60;94.40;;;;;;5093436;28;20515;-79
2022/10/29 05:53:04;;;;;;;5.83;4.30;;;22.60;94.40;;;;;;5095032;28;20447;-80
2022/10/29 05:55:32;;;;;;;5.60;4.20;;;22.60;94.40;;;;;;5097274;28;20475;-79
2022/10/29 05:58:01;;;;;;;5.00;4.60;;;22.60;94.40;;;;;;5095713;28;20477;-77
2022/10/29 06:00:31;;;;;;;4.80;4.40;;;22.60;94.30;;;;;;5091438;28;20457;-78
2022/10/29 06:02:59;;;;;;;6.40;4.53;;;22.60;94.40;;;;;;5092036;28;20454;-77
2022/10/29 06:05:28;;;;;;;6.00;4.20;;;22.60;94.30;;;;;;5083620;28;20428;-77
2022/10/29 06:07:56;;;;;;;5.13;4.50;;;22.60;94.30;;;;;;5091727;28;20448;-79
2022/10/29 06:10:25;;;;;;;4.33;4.03;;;22.60;94.30;;;;;;5095567;28;20481;-79
2022/10/29 06:12:53;;;;;;;7.50;4.50;;;22.50;94.40;;;;;;5095556;28;20860;-80
2022/10/29 06:15:21;;;;;;;4.93;4.00;;;22.50;94.40;;;;;;5095182;28;20448;-79
2022/10/29 06:17:51;;;;;;;4.80;4.40;;;22.50;94.40;;;;;;5095910;28;20443;-79
2022/10/29 06:20:19;;;;;;;4.33;4.00;;;22.50;94.40;;;;;;5095685;28;20547;-80
2022/10/29 06:22:47;;;;;;;5.63;4.33;;;22.50;94.40;;;;;;5090100;28;20983;-80
2022/10/29 06:25:15;;;;;;;5.07;4.57;;;22.50;94.30;;;;;;5095496;28;20463;-79
2022/10/29 06:27:43;;;;;;;4.27;3.87;;;22.50;94.40;;;;;;5094625;28;20423;-79
2022/10/29 06:30:12;;;;;;;4.30;4.00;;;22.50;94.40;;;;;;5097319;28;20906;-79
2022/10/29 06:32:40;;;;;;;4.27;3.90;;;22.50;94.40;;;;;;5097202;28;20451;-79
2022/10/29 06:35:10;;;;;;;4.17;3.77;;;22.50;94.30;;;;;;5097624;28;20422;-80
2022/10/29 06:37:38;;;;;;;4.27;3.57;;;22.50;94.30;;;;;;5093175;28;20498;-79
2022/10/29 06:40:07;;;;;;;3.97;3.67;;;22.50;94.30;;;;;;5097564;28;20436;-79
2022/10/29 06:42:34;;;;;;;4.40;4.00;;;22.50;94.30;;;;;;5095317;28;20498;-79
2022/10/29 06:45:02;;;;;;;4.47;3.77;;;22.50;94.20;;;;;;5096841;28;20427;-79
2022/10/29 06:47:30;;;;;;;4.30;4.00;;;22.50;94.30;;;;;;5096486;28;20415;-80
2022/10/29 06:49:58;;;;;;;3.73;3.43;;;22.50;94.20;;;;;;5095906;28;20456;-79
2022/10/29 06:52:28;;;;;;;4.20;3.80;;;22.60;94.20;;;;;;5086118;28;20449;-79
2022/10/29 06:54:55;;;;;;;4.53;4.13;;;22.50;94.10;;;;;;5096106;28;20457;-79
2022/10/29 06:57:24;;;;;;;4.20;3.80;;;22.50;94.00;;;;;;5093494;28;20446;-80
2022/10/29 06:59:51;;;;;;;4.27;3.77;;;22.50;94.20;;;;;;5092910;28;20423;-79
2022/10/29 07:02:20;;;;;;;4.43;4.07;;;22.50;94.00;;;;;;5093616;28;20453;-79
2022/10/29 07:04:47;;;;;;;4.57;4.07;;;22.50;94.10;;;;;;5095314;28;20425;-79
2022/10/29 07:07:16;;;;;;;4.57;3.90;;;22.60;94.10;;;;;;5093923;28;20411;-78
2022/10/29 07:09:45;;;;;;;6.00;3.73;;;22.60;94.00;;;;;;5087941;28;20419;-78
2022/10/29 07:12:13;;;;;;;3.60;3.40;;;22.60;94.10;;;;;;5090475;28;20429;-79
2022/10/29 07:14:41;;;;;;;4.97;3.47;;;22.60;94.00;;;;;;5090642;28;20415;-79
2022/10/29 07:17:09;;;;;;;3.63;3.43;;;22.60;94.20;;;;;;5097146;28;20457;-79
2022/10/29 07:19:37;;;;;;;4.10;3.70;;;22.60;94.10;;;;;;5095139;28;20482;-80
2022/10/29 07:22:05;;;;;;;3.83;3.53;;;22.60;94.00;;;;;;5096299;28;20425;-80
2022/10/29 07:24:33;;;;;;;3.90;3.60;;;22.60;93.90;;;;;;5097251;28;20448;-79
2022/10/29 07:27:02;;;;;;;4.87;4.17;;;22.60;93.90;;;;;;5095673;28;20943;-79
2022/10/29 07:29:30;;;;;;;4.73;3.50;;;22.70;93.90;;;;;;5096572;28;20407;-79
2022/10/29 07:31:58;;;;;;;4.17;3.80;;;22.70;93.70;;;;;;5097133;28;20459;-79
2022/10/29 07:34:26;;;;;;;4.00;3.60;;;22.70;93.90;;;;;;5098203;28;20427;-79
2022/10/29 07:36:54;;;;;;;4.80;3.70;;;22.70;93.80;;;;;;5098913;28;20443;-79
2022/10/29 07:39:22;;;;;;;7.27;3.37;;;22.70;93.70;;;;;;5098777;28;20452;-79
2022/10/29 07:41:50;;;;;;;4.00;3.60;;;22.70;93.60;;;;;;5098202;28;20423;-79
2022/10/29 07:44:24;;;;;;;4.50;3.47;;;22.70;93.70;;;;;;5099041;28;20434;-80
2022/10/29 07:46:52;;;;;;;4.53;3.80;;;22.70;93.70;;;;;;5098634;28;20435;-79
2022/10/29 07:49:20;;;;;;;3.60;3.40;;;22.70;93.70;;;;;;5099459;28;20439;-79
2022/10/29 07:51:48;;;;;;;3.17;2.97;;;22.70;93.70;;;;;;5099393;28;20487;-79
2022/10/29 07:54:16;;;;;;;4.33;3.90;;;22.80;93.60;;;;;;5100143;28;20451;-80
2022/10/29 07:56:44;;;;;;;4.90;3.70;;;22.80;93.60;;;;;;5099934;28;20411;-80
2022/10/29 07:59:16;;;;;;;3.40;3.20;;;22.80;93.60;;;;;;5098752;28;20461;-80
2022/10/29 08:01:45;;;;;;;4.70;3.70;;;22.80;93.50;;;;;;5100253;28;20447;-80
2022/10/29 08:04:13;;;;;;;4.73;4.20;;;22.80;93.50;;;;;;5105865;28;20472;-80
2022/10/29 08:06:41;;;;;;;4.00;3.70;;;22.80;93.60;;;;;;5101385;28;20441;-78
2022/10/29 08:09:10;;;;;;;3.93;3.63;;;22.80;93.50;;;;;;5099721;28;20452;-79
2022/10/29 08:11:38;;;;;;;4.07;3.67;;;22.90;93.60;;;;;;5107916;28;20471;-80
2022/10/29 08:14:06;;;;;;;4.23;3.77;;;22.90;93.50;;;;;;5110140;28;20458;-81
2022/10/29 08:16:34;;;;;;;3.83;3.60;;;22.90;93.40;;;;;;5099074;28;20430;-80
2022/10/29 08:19:04;;;;;;;5.73;3.60;;;22.90;93.30;;;;;;5087648;28;20481;-80
2022/10/29 08:21:32;;;;;;;14.37;3.27;;;23.00;93.40;;;;;;5101517;28;20441;-80
2022/10/29 08:24:01;;;;;;;11.33;3.83;;;23.00;93.20;;;;;;5107779;28;20472;-81
2022/10/29 08:26:29;;;;;;;10.03;3.70;;;23.00;93.20;;;;;;5110461;28;20469;-80
2022/10/29 08:28:57;;;;;;;6.77;3.70;;;23.00;93.20;;;;;;5103661;28;20437;-80
2022/10/29 08:31:25;;;;;;;11.60;4.07;;;23.00;93.30;;;;;;5097596;28;20504;-80
2022/10/29 08:33:53;;;;;;;9.00;3.47;;;23.00;93.30;;;;;;5097802;28;20432;-80
2022/10/29 08:36:22;;;;;;;5.70;3.50;;;23.00;93.40;;;;;;5097987;28;20421;-80
2022/10/29 08:38:50;;;;;;;5.00;3.67;;;23.00;93.50;;;;;;5100552;28;20446;-82
2022/10/29 08:41:31;;;;;;;10.50;3.50;;;23.00;93.60;;;;;;5099236;28;20441;-80
2022/10/29 08:44:32;;;;;;;5.37;3.07;;;23.00;93.50;;;;;;5106036;28;20465;-81
2022/10/29 08:47:04;;;;;;;5.30;3.30;;;23.10;93.50;;;;;;5104696;28;20535;-81
2022/10/29 08:49:36;;;;;;;4.60;3.27;;;23.10;93.60;;;;;;5100774;28;20435;-80
2022/10/29 08:52:07;;;;;;;4.23;3.07;;;23.10;93.50;;;;;;5102613;28;20451;-79
2022/10/29 08:54:36;;;;;;;10.47;3.70;;;23.10;93.60;;;;;;5104575;28;20452;-80
2022/10/29 08:57:06;;;;;;;7.90;4.07;;;23.20;93.60;;;;;;5106190;28;20447;-80
2022/10/29 08:59:37;;;;;;;5.00;3.53;;;23.20;93.60;;;;;;5106967;28;20476;-79
2022/10/29 09:02:07;;;;;;;5.47;3.43;;;23.20;93.60;;;;;;5105801;28;20404;-79
2022/10/29 09:04:36;;;;;;;3.90;3.50;;;23.20;93.40;;;;;;5106302;28;20449;-80
2022/10/29 09:07:34;;;;;;;8.60;3.23;;;23.30;93.60;;;;;;5105102;28;20444;-80
2022/10/29 09:10:06;;;;;;;3.80;3.33;;;23.30;93.60;;;;;;5089267;28;20444;-80
2022/10/29 09:12:44;;;;;;;7.27;3.33;;;23.40;93.50;;;;;;5101565;28;20464;-80
2022/10/29 09:15:26;;;;;;;9.63;3.27;;;23.40;93.50;;;;;;5099976;28;20447;-80
2022/10/29 09:18:05;;;;;;;3.87;3.50;;;23.40;93.50;;;;;;5100358;28;20460;-79
2022/10/29 09:20:40;;;;;;;6.77;4.00;;;23.50;93.30;;;;;;5098501;28;20413;-80
2022/10/29 09:23:14;;;;;;;5.50;3.30;;;23.50;93.20;;;;;;5096805;28;20981;-80
2022/10/29 09:25:45;;;;;;;11.63;3.73;;;23.60;93.10;;;;;;5076085;28;20489;-79
2022/10/29 09:28:21;;;;;;;7.47;3.40;;;23.70;93.00;;;;;;5082432;28;20408;-81
2022/10/29 09:30:51;;;;;;;7.77;3.70;;;23.70;92.90;;;;;;5097448;28;20428;-80
2022/10/29 09:33:20;;;;;;;5.83;3.43;;;23.70;92.80;;;;;;5097100;28;20439;-80
2022/10/29 09:35:49;;;;;;;4.47;2.97;;;23.80;92.70;;;;;;5095943;28;20419;-81
2022/10/29 09:38:21;;;;;;;5.33;3.37;;;23.80;92.50;;;;;;5094750;28;20451;-80
2022/10/29 09:40:48;;;;;;;11.13;3.13;;;23.90;92.50;;;;;;5090331;28;20416;-81
2022/10/29 09:43:25;;;;;;;5.80;3.17;;;23.90;92.40;;;;;;5094961;28;20468;-80
2022/10/29 09:45:56;;;;;;;4.40;3.40;;;23.90;92.40;;;;;;5075934;28;20440;-79
2022/10/29 09:48:27;;;;;;;7.47;3.83;;;24.10;92.70;;;;;;5074241;28;20408;-80
2022/10/29 09:51:00;;;;;;;4.77;3.43;;;24.20;92.70;;;;;;5074192;28;20408;-79
2022/10/29 09:53:30;;;;;;;3.83;3.43;;;24.30;92.60;;;;;;5079890;28;20458;-79
2022/10/29 09:55:58;;;;;;;4.30;3.10;;;24.40;92.30;;;;;;5094875;28;20426;-81
2022/10/29 09:58:27;;;;;;;3.67;3.30;;;24.40;92.20;;;;;;5095518;28;20472;-81
2022/10/29 10:00:56;;;;;;;6.53;3.00;;;24.50;92.20;;;;;;5095095;28;20415;-79
2022/10/29 10:03:26;;;;;;;4.10;2.97;;;24.50;92.10;;;;;;5099470;28;20464;-81
2022/10/29 10:06:00;;;;;;;4.33;3.00;;;24.50;92.20;;;;;;5100417;28;20415;-80
2022/10/29 10:08:29;;;;;;;7.10;3.00;;;24.50;92.10;;;;;;5102606;28;20429;-79
2022/10/29 10:10:59;;;;;;;4.70;3.23;;;24.60;92.10;;;;;;5101677;28;20443;-79
2022/10/29 10:13:28;;;;;;;13.33;3.47;;;24.60;92.10;;;;;;5100146;28;20477;-80
2022/10/29 10:15:57;;;;;;;8.13;3.53;;;24.60;92.20;;;;;;5100339;28;20428;-81
2022/10/29 10:18:26;;;;;;;13.13;4.20;;;24.60;92.40;;;;;;5097573;28;20440;-81
2022/10/29 10:21:05;;;;;;;12.80;4.00;;;24.50;92.70;;;;;;5095892;28;20420;-81
2022/10/29 10:23:42;;;;;;;17.83;4.83;;;24.50;92.90;;;;;;5093944;28;20431;-80
2022/10/29 10:26:34;;;;;;;21.13;5.70;;;24.50;93.10;;;;;;5078030;28;20509;-80
2022/10/29 10:29:15;;;;;;;15.97;5.27;;;24.60;93.50;;;;;;5093472;28;20439;-79
2022/10/29 10:31:44;;;;;;;21.40;5.60;;;24.70;94.10;;;;;;5088530;28;20432;-78
2022/10/29 10:34:17;;;;;;;17.37;5.43;;;24.80;95.00;;;;;;5092556;28;20471;-81
2022/10/29 10:36:50;;;;;;;15.97;5.10;;;24.90;95.10;;;;;;5093068;28;20505;-79
2022/10/29 10:39:28;;;;;;;14.20;5.30;;;24.90;94.90;;;;;;5092076;28;20514;-79
2022/10/29 10:41:57;;;;;;;22.30;6.20;;;24.90;94.90;;;;;;5091721;28;20395;-81
2022/10/29 10:44:25;;;;;;;26.77;13.43;;;24.90;96.20;;;;;;5092014;28;20460;-80
2022/10/29 10:46:54;;;;;;;27.10;12.83;;;23.00;88.60;;;;;;5091178;28;20412;-83
2022/10/29 10:49:29;;;;;;;25.37;13.87;;;22.10;90.70;;;;;;5091248;28;20429;-84
2022/10/29 10:51:57;;;;;;;28.60;13.20;;;21.60;91.80;;;;;;5094642;28;20407;-83
2022/10/29 10:54:31;;;;;;;32.67;14.93;;;20.90;92.50;;;;;;5088078;28;20962;-83
2022/10/29 10:57:00;;;;;;;38.97;21.20;;;21.20;94.10;;;;;;5091448;28;20486;-87
2022/10/29 10:59:36;;;;;;;33.87;15.63;;;21.30;94.30;;;;;;5090287;28;20468;-86
2022/10/29 11:02:04;;;;;;;30.83;14.93;;;21.40;94.50;;;;;;5093228;28;20420;-87
2022/10/29 11:04:34;;;;;;;32.03;16.13;;;21.10;93.00;;;;;;5092593;28;20456;-86
2022/10/29 11:07:09;;;;;;;29.40;16.90;;;21.10;94.70;;;;;;5092702;28;20452;-87
2022/10/29 11:09:43;;;;;;;28.47;15.40;;;21.20;95.50;;;;;;5093110;28;20492;-84
2022/10/29 11:12:14;;;;;;;30.53;15.73;;;21.40;94.60;;;;;;5107684;28;20420;-87
2022/10/29 11:14:55;;;;;;;33.07;15.67;;;21.50;94.90;;;;;;5112022;28;20461;-86
2022/10/29 11:17:45;;;;;;;27.67;12.67;;;21.40;95.60;;;;;;5105499;28;20486;-86
2022/10/29 11:20:23;;;;;;;24.37;13.83;;;21.70;94.00;;;;;;5100100;28;20541;-84
2022/10/29 11:23:00;;;;;;;25.90;14.93;;;21.60;93.70;;;;;;5095051;28;20496;-84
2022/10/29 11:25:34;;;;;;;29.67;14.60;;;21.50;94.40;;;;;;5109417;28;20504;-85
2022/10/29 11:28:07;;;;;;;35.20;15.50;;;21.30;94.30;;;;;;5115539;28;20484;-85
2022/10/29 11:30:40;;;;;;;24.10;14.37;;;21.40;95.30;;;;;;5118209;28;20436;-85
2022/10/29 11:33:17;;;;;;;30.10;14.47;;;21.20;95.60;;;;;;5116892;28;20530;-85
2022/10/29 11:35:46;;;;;;;25.40;13.33;;;21.20;95.80;;;;;;5116338;28;20448;-88
2022/10/29 11:38:16;;;;;;;41.60;24.50;;;21.30;95.40;;;;;;5109869;28;20524;-83
2022/10/29 11:40:49;;;;;;;42.40;21.60;;;21.30;96.10;;;;;;5118104;28;20435;-83
2022/10/29 11:43:18;;;;;;;24.73;13.53;;;21.30;96.20;;;;;;5116395;28;20476;-85
2022/10/29 11:45:55;;;;;;;25.53;14.63;;;21.30;96.50;;;;;;5118410;28;20492;-84
2022/10/29 11:48:31;;;;;;;32.43;13.10;;;21.60;96.10;;;;;;5113530;28;20479;-85
2022/10/29 11:51:02;;;;;;;22.17;13.60;;;21.90;95.60;;;;;;5088231;28;20512;-84
2022/10/29 11:53:44;;;;;;;34.80;14.10;;;21.90;95.80;;;;;;5083620;28;20479;-84
2022/10/29 11:56:17;;;;;;;29.73;14.57;;;21.90;95.70;;;;;;5093822;28;20428;-79
2022/10/29 11:58:48;;;;;;;33.67;13.83;;;21.90;95.70;;;;;;5087640;28;20455;-84
2022/10/29 12:04:58;;;;;;;25.53;14.13;;;21.80;96.10;;;;;;5087777;28;20404;-81
2022/10/29 12:07:33;;;;;;;24.77;13.10;;;22.40;95.90;;;;;;5097311;28;20455;-82
2022/10/29 12:10:18;;;;;;;46.63;28.33;;;22.80;95.10;;;;;;5101745;28;20449;-80
2022/10/29 12:12:49;;;;;;;19.00;12.50;;;23.20;94.10;;;;;;5094632;28;20479;-82
2022/10/29 12:15:21;;;;;;;20.63;11.43;;;23.40;93.30;;;;;;5098462;28;20456;-81
2022/10/29 12:17:54;;;;;;;22.40;12.83;;;23.40;93.10;;;;;;5094302;28;20443;-82
2022/10/29 12:20:26;;;;;;;31.20;12.30;;;23.60;91.40;;;;;;5089551;28;20464;-80
2022/10/29 12:22:56;;;;;;;24.67;11.40;;;23.60;91.50;;;;;;5102043;28;20419;-81
2022/10/29 12:25:38;;;;;;;23.63;10.93;;;23.70;91.00;;;;;;5096570;28;20453;-80
2022/10/29 12:28:17;;;;;;;29.70;12.00;;;23.90;91.00;;;;;;5099156;28;20448;-80
2022/10/29 12:31:05;;;;;;;24.23;11.13;;;23.80;91.10;;;;;;5088599;28;20777;-80
2022/10/29 12:33:36;;;;;;;19.77;10.67;;;24.00;91.00;;;;;;5098867;28;20451;-80
2022/10/29 12:36:08;;;;;;;20.57;11.20;;;23.80;91.20;;;;;;5100164;28;20513;-81
2022/10/29 12:38:40;;;;;;;23.20;11.03;;;24.00;90.00;;;;;;5100928;28;20416;-82
2022/10/29 12:41:17;;;;;;;21.67;10.47;;;24.10;88.80;;;;;;5099018;28;20530;-83
2022/10/29 12:43:46;;;;;;;27.33;12.80;;;24.40;89.50;;;;;;5102679;28;20472;-80
2022/10/29 12:46:21;;;;;;;25.57;12.97;;;24.30;87.10;;;;;;5096854;28;20457;-82
2022/10/29 12:48:59;;;;;;;28.77;9.83;;;24.40;85.50;;;;;;5095974;28;20422;-81
2022/10/29 12:51:32;;;;;;;50.27;10.27;;;24.60;88.10;;;;;;5089016;28;20407;-81
2022/10/29 12:54:15;;;;;;;23.67;8.67;;;24.80;88.40;;;;;;5093245;28;20473;-81
2022/10/29 12:56:43;;;;;;;27.63;7.90;;;25.00;88.90;;;;;;5092177;28;20446;-82
2022/10/29 12:59:29;;;;;;;21.83;6.30;;;25.10;89.20;;;;;;5088608;28;20455;-82
2022/10/29 13:02:02;;;;;;;28.07;6.83;;;25.20;89.20;;;;;;5095966;28;20453;-83
2022/10/29 13:04:38;;;;;;;9.70;5.17;;;25.30;89.20;;;;;;5076956;28;20424;-81